createdAt,value
2017-04-29T00:00:53.802Z,6.74
2017-04-29T00:01:53.824Z,6.58
2017-04-29T00:02:53.843Z,6.59
2017-04-29T00:03:53.867Z,6.59
2017-04-29T00:04:53.889Z,6.61
2017-04-29T00:05:53.903Z,6.55
2017-04-29T00:06:53.927Z,6.61
2017-04-29T00:07:53.946Z,6.51
2017-04-29T00:08:53.968Z,6.38
2017-04-29T00:09:53.984Z,6.49
2017-04-29T00:10:54.006Z,6.51
2017-04-29T00:11:54.020Z,6.51
2017-04-29T00:12:54.044Z,6.55
2017-04-29T00:13:54.066Z,6.59
2017-04-29T00:14:54.087Z,6.52
2017-04-29T00:15:54.099Z,6.54
2017-04-29T00:18:08.758Z,6.55
2017-04-29T00:19:08.777Z,6.62
2017-04-29T00:20:08.795Z,6.59
2017-04-29T00:20:54.197Z,6.76
2017-04-29T00:21:54.219Z,6.69
2017-04-29T00:22:54.240Z,6.73
2017-04-29T00:24:08.873Z,6.7
2017-04-29T00:24:54.277Z,6.73
2017-04-29T00:25:54.300Z,6.74
2017-04-29T00:26:54.012Z,6.84
2017-04-29T00:28:54.356Z,6.98
2017-04-29T00:29:54.377Z,6.99
2017-04-29T00:30:54.400Z,6.99
2017-04-29T00:32:09.035Z,6.89
2017-04-29T00:33:54.456Z,6.88
2017-04-29T00:34:54.474Z,6.91
2017-04-29T00:35:54.493Z,6.95
2017-04-29T00:37:09.128Z,6.99
2017-04-29T00:37:54.532Z,6.89
2017-04-29T00:38:54.585Z,6.92
2017-04-29T00:40:08.882Z,6.84
2017-04-29T00:40:54.595Z,6.92
2017-04-29T00:41:54.611Z,6.95
2017-04-29T00:42:54.629Z,6.98
2017-04-29T00:43:54.651Z,6.95
2017-04-29T00:44:54.669Z,7.05
2017-04-29T00:45:54.695Z,7.06
2017-04-29T00:46:54.711Z,7.06
2017-04-29T00:47:54.729Z,7.15
2017-04-29T00:48:54.445Z,7.12
2017-04-29T00:50:09.385Z,7.13
2017-04-29T00:50:54.490Z,7.07
2017-04-29T00:51:54.808Z,7.1
2017-04-29T00:52:54.828Z,7.2
2017-04-29T00:53:54.848Z,7.21
2017-04-29T00:54:54.866Z,7.23
2017-04-29T00:56:09.498Z,7.42
2017-04-29T00:56:54.599Z,7.35
2017-04-29T00:57:54.927Z,7.43
2017-04-29T00:58:54.950Z,7.39
2017-04-29T01:00:54.981Z,7.46
2017-04-29T01:01:55.003Z,7.46
2017-04-29T01:02:55.022Z,7.5
2017-04-29T01:03:55.047Z,7.57
2017-04-29T01:04:55.061Z,7.68
2017-04-29T01:06:55.098Z,7.67
2017-04-29T01:07:55.120Z,7.61
2017-04-29T01:08:54.836Z,7.61
2017-04-29T01:09:54.858Z,7.74
2017-04-29T01:10:55.176Z,7.79
2017-04-29T01:12:09.512Z,7.9
2017-04-29T01:12:55.218Z,7.86
2017-04-29T01:13:54.934Z,8
2017-04-29T01:14:55.256Z,7.98
2017-04-29T01:15:55.279Z,8.07
2017-04-29T01:17:55.322Z,8.22
2017-04-29T01:18:55.336Z,8.2
2017-04-29T01:19:55.358Z,8.36
2017-04-29T01:20:55.376Z,8.34
2017-04-29T01:23:10.031Z,8.45
2017-04-29T01:23:55.432Z,8.45
2017-04-29T01:24:55.455Z,8.44
2017-04-29T01:25:55.472Z,8.44
2017-04-29T01:27:10.108Z,8.38
2017-04-29T01:27:55.213Z,8.37
2017-04-29T01:28:55.530Z,8.41
2017-04-29T01:29:55.554Z,8.4
2017-04-29T01:30:55.571Z,8.38
2017-04-29T01:31:55.593Z,8.36
2017-04-29T01:33:55.633Z,8.45
2017-04-29T01:34:55.661Z,8.4
2017-04-29T01:35:55.667Z,8.43
2017-04-29T01:36:55.692Z,8.55
2017-04-29T01:37:55.709Z,8.41
2017-04-29T01:38:55.425Z,8.41
2017-04-29T01:39:55.750Z,8.38
2017-04-29T01:40:55.768Z,8.43
2017-04-29T01:41:55.787Z,8.4
2017-04-29T01:42:55.809Z,8.48
2017-04-29T01:43:55.829Z,8.52
2017-04-29T01:44:55.849Z,8.44
2017-04-29T01:45:55.566Z,8.45
2017-04-29T01:46:55.584Z,8.44
2017-04-29T01:47:55.907Z,8.44
2017-04-29T01:48:55.927Z,8.44
2017-04-29T01:49:55.946Z,8.41
2017-04-29T01:50:55.965Z,8.55
2017-04-29T01:51:55.983Z,8.41
2017-04-29T01:52:56.005Z,8.34
2017-04-29T01:53:56.027Z,8.55
2017-04-29T01:55:10.356Z,8.37
2017-04-29T01:55:56.062Z,8.37
2017-04-29T01:56:56.083Z,8.38
2017-04-29T01:57:56.107Z,8.44
2017-04-29T01:59:10.739Z,8.25
2017-04-29T02:00:56.164Z,8.33
2017-04-29T02:01:56.184Z,8.33
2017-04-29T02:02:56.205Z,8.22
2017-04-29T02:03:56.222Z,8.23
2017-04-29T02:04:56.241Z,8.26
2017-04-29T02:05:55.961Z,8.15
2017-04-29T02:07:56.301Z,8.1
2017-04-29T02:08:56.319Z,8.1
2017-04-29T02:09:56.339Z,7.97
2017-04-29T02:10:56.357Z,8.02
2017-04-29T02:11:56.381Z,7.98
2017-04-29T02:12:56.401Z,8
2017-04-29T02:13:56.422Z,8.02
2017-04-29T02:15:11.053Z,8.02
2017-04-29T02:15:56.455Z,7.97
2017-04-29T02:17:56.498Z,7.92
2017-04-29T02:18:56.529Z,7.85
2017-04-29T02:20:11.157Z,7.86
2017-04-29T02:20:56.555Z,7.87
2017-04-29T02:22:56.597Z,7.86
2017-04-29T02:23:56.614Z,7.82
2017-04-29T02:25:11.250Z,7.89
2017-04-29T02:25:56.655Z,7.83
2017-04-29T02:26:56.673Z,7.85
2017-04-29T02:27:56.697Z,7.85
2017-04-29T02:28:56.714Z,7.98
2017-04-29T02:29:56.734Z,7.8
2017-04-29T02:31:11.367Z,7.9
2017-04-29T02:31:56.770Z,7.9
2017-04-29T02:32:56.793Z,7.93
2017-04-29T02:33:56.507Z,7.82
2017-04-29T02:34:56.829Z,7.82
2017-04-29T02:35:56.851Z,7.77
2017-04-29T02:36:56.867Z,7.8
2017-04-29T02:37:56.898Z,7.83
2017-04-29T02:38:56.915Z,7.85
2017-04-29T02:40:11.547Z,7.85
2017-04-29T02:40:56.946Z,7.82
2017-04-29T02:41:56.662Z,7.77
2017-04-29T02:43:11.601Z,7.8
2017-04-29T02:43:57.006Z,7.71
2017-04-29T02:44:57.031Z,7.69
2017-04-29T02:45:57.049Z,7.63
2017-04-29T02:47:11.680Z,7.68
2017-04-29T02:48:57.109Z,7.67
2017-04-29T02:49:57.122Z,7.57
2017-04-29T02:50:56.838Z,7.61
2017-04-29T02:51:57.199Z,7.74
2017-04-29T02:52:56.881Z,7.68
2017-04-29T02:53:57.209Z,7.72
2017-04-29T02:54:57.221Z,7.6
2017-04-29T02:55:57.242Z,7.63
2017-04-29T02:56:57.260Z,7.57
2017-04-29T02:57:57.282Z,7.69
2017-04-29T02:58:57.301Z,7.58
2017-04-29T02:59:57.320Z,7.61
2017-04-29T03:00:57.338Z,7.63
2017-04-29T03:02:11.676Z,7.6
2017-04-29T03:02:57.380Z,7.69
2017-04-29T03:03:57.398Z,7.55
2017-04-29T03:04:57.420Z,7.68
2017-04-29T03:05:57.437Z,7.63
2017-04-29T03:06:57.153Z,7.63
2017-04-29T03:07:57.477Z,7.69
2017-04-29T03:08:57.500Z,7.67
2017-04-29T03:09:57.215Z,7.58
2017-04-29T03:10:57.532Z,7.6
2017-04-29T03:11:57.555Z,7.61
2017-04-29T03:12:57.576Z,7.5
2017-04-29T03:13:57.596Z,7.5
2017-04-29T03:14:57.613Z,7.49
2017-04-29T03:15:57.327Z,7.42
2017-04-29T03:16:57.653Z,7.42
2017-04-29T03:17:57.675Z,7.42
2017-04-29T03:19:57.712Z,7.23
2017-04-29T03:20:57.731Z,7.21
2017-04-29T03:21:57.750Z,7.17
2017-04-29T03:22:57.769Z,7.09
2017-04-29T03:23:57.799Z,7.13
2017-04-29T03:24:57.814Z,7.13
2017-04-29T03:25:57.827Z,7.17
2017-04-29T03:26:57.846Z,7.15
2017-04-29T03:27:57.866Z,7.12
2017-04-29T03:29:12.502Z,7.13
2017-04-29T03:29:57.905Z,7.13
2017-04-29T03:30:57.925Z,7.09
2017-04-29T03:31:57.945Z,7.09
2017-04-29T03:32:57.975Z,7.17
2017-04-29T03:34:12.603Z,7.13
2017-04-29T03:34:58.007Z,7.15
2017-04-29T03:35:58.022Z,7.13
2017-04-29T03:36:58.041Z,7.23
2017-04-29T03:38:58.097Z,7.21
2017-04-29T03:39:58.106Z,7.25
2017-04-29T03:41:58.138Z,7.34
2017-04-29T03:42:58.163Z,7.31
2017-04-29T03:44:12.796Z,7.23
2017-04-29T03:44:58.200Z,7.27
2017-04-29T03:46:12.835Z,7.37
2017-04-29T03:46:58.238Z,7.35
2017-04-29T03:47:58.262Z,7.37
2017-04-29T03:48:58.277Z,7.37
2017-04-29T03:50:12.912Z,7.35
2017-04-29T03:50:58.312Z,7.35
2017-04-29T03:51:58.334Z,7.35
2017-04-29T03:52:58.352Z,7.45
2017-04-29T03:53:58.111Z,7.46
2017-04-29T03:54:58.391Z,7.53
2017-04-29T03:55:58.411Z,7.52
2017-04-29T03:56:58.435Z,7.53
2017-04-29T03:57:58.452Z,7.61
2017-04-29T03:58:58.470Z,7.53
2017-04-29T03:59:58.490Z,7.5
2017-04-29T04:00:58.208Z,7.53
2017-04-29T04:02:13.145Z,7.58
2017-04-29T04:02:58.550Z,7.6
2017-04-29T04:03:58.568Z,7.68
2017-04-29T04:04:58.590Z,7.63
2017-04-29T04:06:13.222Z,7.67
2017-04-29T04:06:58.625Z,7.68
2017-04-29T04:07:58.646Z,7.69
2017-04-29T04:08:58.669Z,7.6
2017-04-29T04:09:58.691Z,7.67
2017-04-29T04:10:58.704Z,7.71
2017-04-29T04:11:58.725Z,7.69
2017-04-29T04:12:58.747Z,7.71
2017-04-29T04:13:58.764Z,7.77
2017-04-29T04:15:58.806Z,7.72
2017-04-29T04:17:58.843Z,7.95
2017-04-29T04:18:58.861Z,7.83
2017-04-29T04:19:58.882Z,8.01
2017-04-29T04:20:58.904Z,8.04
2017-04-29T04:22:13.237Z,8.11
2017-04-29T04:22:58.938Z,8.05
2017-04-29T04:23:58.998Z,8.05
2017-04-29T04:24:58.979Z,8.08
2017-04-29T04:25:59.001Z,8.15
2017-04-29T04:26:59.017Z,8.11
2017-04-29T04:27:59.041Z,8.15
2017-04-29T04:28:59.057Z,8.22
2017-04-29T04:29:59.081Z,8.19
2017-04-29T04:31:59.126Z,8.16
2017-04-29T04:33:13.753Z,8.11
2017-04-29T04:33:59.159Z,8.22
2017-04-29T04:34:59.182Z,8.2
2017-04-29T04:35:59.195Z,8.23
2017-04-29T04:37:13.831Z,8.22
2017-04-29T04:37:59.235Z,8.22
2017-04-29T04:38:59.260Z,8.1
2017-04-29T04:39:59.277Z,8.04
2017-04-29T04:40:59.298Z,8.1
2017-04-29T04:41:59.313Z,8.04
2017-04-29T04:42:59.334Z,8.04
2017-04-29T04:43:59.353Z,7.93
2017-04-29T04:44:59.378Z,8.04
2017-04-29T04:45:59.393Z,8.05
2017-04-29T04:48:14.050Z,7.87
2017-04-29T04:48:59.499Z,7.83
2017-04-29T04:50:14.090Z,7.95
2017-04-29T04:50:59.496Z,7.98
2017-04-29T04:51:59.509Z,7.97
2017-04-29T04:52:59.534Z,7.86
2017-04-29T04:53:59.552Z,7.83
2017-04-29T04:54:59.573Z,7.69
2017-04-29T04:55:59.592Z,7.72
2017-04-29T04:56:59.609Z,7.75
2017-04-29T04:57:59.631Z,7.79
2017-04-29T04:58:59.651Z,7.82
2017-04-29T05:00:59.690Z,8.07
2017-04-29T05:01:59.709Z,8.02
2017-04-29T05:03:14.347Z,7.98
2017-04-29T05:03:59.748Z,8.08
2017-04-29T05:05:14.384Z,8.05
2017-04-29T05:05:59.790Z,8.25
2017-04-29T05:06:59.810Z,8.41
2017-04-29T05:07:59.834Z,8.71
2017-04-29T05:09:14.466Z,8.84
2017-04-29T05:10:59.586Z,9.23
2017-04-29T05:11:59.911Z,9.75
2017-04-29T05:12:59.932Z,10.41
2017-04-29T05:14:59.986Z,10.76
2017-04-29T05:15:59.998Z,10.61
2017-04-29T05:17:00.020Z,10.17
2017-04-29T05:18:00.047Z,10.14
2017-04-29T05:18:59.766Z,10.07
2017-04-29T05:20:00.084Z,10.2
2017-04-29T05:21:14.722Z,10.04
2017-04-29T05:22:00.137Z,9.94
2017-04-29T05:23:14.766Z,9.96
2017-04-29T05:24:00.174Z,10.17
2017-04-29T05:25:14.812Z,10.51
2017-04-29T05:26:00.229Z,10.36
2017-04-29T05:27:00.236Z,10.42
2017-04-29T05:27:59.960Z,10.42
2017-04-29T05:28:59.980Z,10.47
2017-04-29T05:30:00.308Z,10.94
2017-04-29T05:31:00.327Z,11.44
2017-04-29T05:32:00.350Z,11.83
2017-04-29T05:33:00.377Z,12.41
2017-04-29T05:34:00.399Z,12.19
2017-04-29T05:35:00.427Z,11.82
2017-04-29T05:36:00.443Z,11.64
2017-04-29T05:37:00.469Z,11.72
2017-04-29T05:38:00.492Z,12.23
2017-04-29T05:39:00.515Z,13.07
2017-04-29T05:40:00.542Z,13.38
2017-04-29T05:41:15.177Z,13.64
2017-04-29T05:42:00.597Z,13.7
2017-04-29T05:43:00.612Z,14.02
2017-04-29T05:44:00.647Z,14.2
2017-04-29T05:45:00.663Z,14.94
2017-04-29T05:47:00.718Z,16.3
2017-04-29T05:48:00.739Z,16.79
2017-04-29T05:50:00.790Z,16.68
2017-04-29T05:51:00.817Z,16.48
2017-04-29T05:52:00.842Z,16.02
2017-04-29T05:53:00.865Z,15.17
2017-04-29T05:54:00.896Z,15.39
2017-04-29T05:55:00.922Z,15.6
2017-04-29T05:56:00.984Z,15.71
2017-04-29T05:57:15.590Z,16.64
2017-04-29T05:58:01.005Z,16.53
2017-04-29T05:59:01.029Z,15.46
2017-04-29T06:00:01.057Z,14.75
2017-04-29T06:01:01.086Z,14.21
2017-04-29T06:02:01.109Z,13.92
2017-04-29T06:03:01.136Z,12.37
2017-04-29T06:04:01.163Z,11.75
2017-04-29T06:05:15.809Z,11.44
2017-04-29T06:08:15.884Z,10.66
2017-04-29T06:09:01.293Z,10.6
2017-04-29T06:10:01.319Z,10.26
2017-04-29T06:11:01.344Z,10.23
2017-04-29T06:12:15.681Z,10.17
2017-04-29T06:13:01.396Z,10.22
2017-04-29T06:14:01.416Z,10.17
2017-04-29T06:15:01.447Z,10.29
2017-04-29T06:16:01.465Z,10.27
2017-04-29T06:17:01.487Z,10.23
2017-04-29T06:18:01.519Z,10.11
2017-04-29T06:19:01.539Z,10.09
2017-04-29T06:20:01.567Z,9.86
2017-04-29T06:21:01.588Z,9.91
2017-04-29T06:22:16.228Z,9.86
2017-04-29T06:23:01.632Z,9.78
2017-04-29T06:24:01.656Z,10.04
2017-04-29T06:25:01.714Z,9.94
2017-04-29T06:26:01.705Z,10.01
2017-04-29T06:27:01.726Z,9.83
2017-04-29T06:28:01.750Z,10.02
2017-04-29T06:29:01.776Z,9.89
2017-04-29T06:31:01.819Z,9.86
2017-04-29T06:32:01.841Z,9.87
2017-04-29T06:33:01.873Z,9.93
2017-04-29T06:35:01.913Z,10.11
2017-04-29T06:36:01.931Z,10.18
2017-04-29T06:37:01.650Z,9.99
2017-04-29T06:38:01.974Z,10.07
2017-04-29T06:39:02.002Z,10.04
2017-04-29T06:40:02.018Z,10.12
2017-04-29T06:41:02.086Z,10.15
2017-04-29T06:42:16.679Z,9.99
2017-04-29T06:43:02.087Z,9.99
2017-04-29T06:44:16.727Z,10.12
2017-04-29T06:45:02.132Z,10.18
2017-04-29T06:46:02.154Z,10.25
2017-04-29T06:47:02.177Z,10.47
2017-04-29T06:48:16.821Z,10.89
2017-04-29T06:49:02.222Z,11.03
2017-04-29T06:50:02.246Z,11.54
2017-04-29T06:51:02.263Z,11.9
2017-04-29T06:52:02.291Z,12.24
2017-04-29T06:53:02.311Z,13.33
2017-04-29T06:54:02.337Z,14.04
2017-04-29T06:55:02.359Z,14.22
2017-04-29T06:56:02.381Z,14.18
2017-04-29T06:57:02.418Z,14.22
2017-04-29T06:58:02.430Z,13.91
2017-04-29T06:59:02.455Z,13.59
2017-04-29T07:00:17.096Z,13.59
2017-04-29T07:01:02.506Z,13.48
2017-04-29T07:02:02.528Z,13.01
2017-04-29T07:03:02.561Z,13.39
2017-04-29T07:04:02.583Z,14.17
2017-04-29T07:05:02.604Z,14.65
2017-04-29T07:06:02.633Z,14.96
2017-04-29T07:07:02.659Z,14.58
2017-04-29T07:08:02.684Z,14.47
2017-04-29T07:09:02.705Z,14.04
2017-04-29T07:10:02.734Z,14.18
2017-04-29T07:11:02.761Z,14.98
2017-04-29T07:12:17.424Z,15.6
2017-04-29T07:13:02.811Z,15.93
2017-04-29T07:14:02.837Z,16.39
2017-04-29T07:15:02.560Z,16.42
2017-04-29T07:16:17.507Z,16.78
2017-04-29T07:17:02.920Z,17.19
2017-04-29T07:18:02.947Z,17.7
2017-04-29T07:19:02.975Z,17.81
2017-04-29T07:20:03.006Z,17.52
2017-04-29T07:21:03.028Z,17.28
2017-04-29T07:23:03.085Z,16.33
2017-04-29T07:24:03.120Z,15.57
2017-04-29T07:25:03.144Z,15.43
2017-04-29T07:26:02.870Z,15.1
2017-04-29T07:28:03.535Z,16.28
2017-04-29T07:29:03.261Z,17.19
2017-04-29T07:30:03.297Z,17.21
2017-04-29T07:31:03.015Z,17.08
2017-04-29T07:32:17.967Z,17.38
2017-04-29T07:33:03.377Z,17.28
2017-04-29T07:34:03.406Z,17.18
2017-04-29T07:35:03.438Z,17.03
2017-04-29T07:36:03.465Z,16.61
2017-04-29T07:37:03.496Z,16.68
2017-04-29T07:38:03.527Z,16.46
2017-04-29T07:42:03.344Z,18.33
2017-04-29T07:43:03.680Z,18.08
2017-04-29T07:44:03.710Z,18.39
2017-04-29T07:45:03.742Z,18.41
2017-04-29T07:46:03.775Z,18.66
2017-04-29T07:47:18.420Z,18.9
2017-04-29T07:48:03.833Z,18.95
2017-04-29T07:49:03.863Z,19.28
2017-04-29T07:50:03.906Z,18.75
2017-04-29T07:51:03.625Z,18.9
2017-04-29T07:52:03.664Z,18.76
2017-04-29T07:53:03.685Z,18.29
2017-04-29T07:54:03.717Z,17.74
2017-04-29T07:55:04.055Z,17.15
2017-04-29T07:56:03.782Z,17.68
2017-04-29T07:57:04.115Z,18.48
2017-04-29T07:58:04.148Z,18.39
2017-04-29T07:59:04.180Z,18.85
2017-04-29T08:00:04.213Z,19.13
2017-04-29T08:01:03.941Z,19.56
2017-04-29T08:02:04.270Z,19.46
2017-04-29T08:03:04.307Z,19.56
2017-04-29T08:04:04.334Z,18.91
2017-04-29T08:05:04.369Z,17.68
2017-04-29T08:06:04.397Z,16.96
2017-04-29T08:07:04.427Z,16.42
2017-04-29T08:08:04.461Z,15.53
2017-04-29T08:09:04.489Z,15.36
2017-04-29T08:10:04.524Z,15.1
2017-04-29T08:11:04.548Z,14.95
2017-04-29T08:12:04.578Z,14.77
2017-04-29T08:13:04.613Z,14.65
2017-04-29T08:14:04.639Z,14.54
2017-04-29T08:15:04.667Z,14.46
2017-04-29T08:16:19.310Z,14.2
2017-04-29T08:17:04.719Z,14.27
2017-04-29T08:18:04.752Z,14
2017-04-29T08:19:19.393Z,13.85
2017-04-29T08:20:04.806Z,13.73
2017-04-29T08:21:04.834Z,13.49
2017-04-29T08:22:04.856Z,13.44
2017-04-29T08:23:04.583Z,13.19
2017-04-29T08:24:04.911Z,13.23
2017-04-29T08:26:04.657Z,12.93
2017-04-29T08:27:04.990Z,13.04
2017-04-29T08:30:04.761Z,13.1
2017-04-29T08:31:05.090Z,12.89
2017-04-29T08:32:05.116Z,13.15
2017-04-29T08:33:19.757Z,13.49
2017-04-29T08:34:05.165Z,13.49
2017-04-29T08:35:19.505Z,13.69
2017-04-29T08:36:05.218Z,13.99
2017-04-29T08:37:05.244Z,14.18
2017-04-29T08:38:05.267Z,14.46
2017-04-29T08:39:05.297Z,14.21
2017-04-29T08:40:05.317Z,14.06
2017-04-29T08:41:05.343Z,13.67
2017-04-29T08:42:05.367Z,13.3
2017-04-29T08:44:05.419Z,13.04
2017-04-29T08:46:05.475Z,12.83
2017-04-29T08:47:05.491Z,12.7
2017-04-29T08:48:05.519Z,12.23
2017-04-29T08:49:05.541Z,11.67
2017-04-29T08:50:05.263Z,11.28
2017-04-29T08:51:20.207Z,11.07
2017-04-29T08:52:05.618Z,11.1
2017-04-29T08:53:05.643Z,11.04
2017-04-29T08:54:05.713Z,11.18
2017-04-29T08:55:05.689Z,10.96
2017-04-29T08:56:05.711Z,10.71
2017-04-29T08:57:05.737Z,10.7
2017-04-29T08:58:05.764Z,10.88
2017-04-29T08:59:05.935Z,10.71
2017-04-29T09:00:05.812Z,10.99
2017-04-29T09:01:05.837Z,10.88
2017-04-29T09:03:05.883Z,10.97
2017-04-29T09:04:05.600Z,11.03
2017-04-29T09:05:05.929Z,11.29
2017-04-29T09:06:05.951Z,11.25
2017-04-29T09:07:20.607Z,11.43
2017-04-29T09:08:05.697Z,11.42
2017-04-29T09:09:06.025Z,11.19
2017-04-29T09:10:05.770Z,11.36
2017-04-29T09:11:06.073Z,11.44
2017-04-29T09:13:06.116Z,11.51
2017-04-29T09:14:06.170Z,11.58
2017-04-29T09:15:06.163Z,11.57
2017-04-29T09:16:06.189Z,11.54
2017-04-29T09:17:06.211Z,11.67
2017-04-29T09:18:20.852Z,12.02
2017-04-29T09:19:06.260Z,11.8
2017-04-29T09:20:06.285Z,11.96
2017-04-29T09:21:06.304Z,12.1
2017-04-29T09:22:20.945Z,12.23
2017-04-29T09:23:06.353Z,12.37
2017-04-29T09:24:06.374Z,12.17
2017-04-29T09:25:06.400Z,12.42
2017-04-29T09:26:06.420Z,12.38
2017-04-29T09:27:06.444Z,12.2
2017-04-29T09:28:06.165Z,12.68
2017-04-29T09:29:06.189Z,13.2
2017-04-29T09:31:06.541Z,13.32
2017-04-29T09:33:06.587Z,13.03
2017-04-29T09:34:06.306Z,13.01
2017-04-29T09:35:06.658Z,13.05
2017-04-29T09:36:06.658Z,13.33
2017-04-29T09:37:06.687Z,13.23
2017-04-29T09:38:06.400Z,13.2
2017-04-29T09:39:06.731Z,13.2
2017-04-29T09:40:06.752Z,13.19
2017-04-29T09:41:06.775Z,12.74
2017-04-29T09:42:06.495Z,12.85
2017-04-29T09:44:06.847Z,13.23
2017-04-29T09:46:06.928Z,12.97
2017-04-29T09:47:06.920Z,12.65
2017-04-29T09:48:06.951Z,12.77
2017-04-29T09:49:06.965Z,12.67
2017-04-29T09:50:21.302Z,12.74
2017-04-29T09:51:07.017Z,12.7
2017-04-29T09:52:07.035Z,12.74
2017-04-29T09:53:07.058Z,12.65
2017-04-29T09:54:21.702Z,13.22
2017-04-29T09:55:07.108Z,13.64
2017-04-29T09:56:07.128Z,13.92
2017-04-29T09:57:07.153Z,13.99
2017-04-29T09:58:07.180Z,14.06
2017-04-29T09:59:07.207Z,13.95
2017-04-29T10:00:07.227Z,14.25
2017-04-29T10:01:07.254Z,14.03
2017-04-29T10:02:07.274Z,14.1
2017-04-29T10:03:07.296Z,14.12
2017-04-29T10:04:07.332Z,14.03
2017-04-29T10:05:07.345Z,14.17
2017-04-29T10:06:07.382Z,14.22
2017-04-29T10:07:22.011Z,14.39
2017-04-29T10:08:22.035Z,14.37
2017-04-29T10:09:07.482Z,14.43
2017-04-29T10:10:22.083Z,14.54
2017-04-29T10:11:07.492Z,14.55
2017-04-29T10:12:07.516Z,14.29
2017-04-29T10:13:07.538Z,14.02
2017-04-29T10:14:07.563Z,14.03
2017-04-29T10:15:07.587Z,14.03
2017-04-29T10:16:07.612Z,14.33
2017-04-29T10:17:07.640Z,13.7
2017-04-29T10:19:07.688Z,13.7
2017-04-29T10:20:07.406Z,13.89
2017-04-29T10:21:22.352Z,13.95
2017-04-29T10:22:07.760Z,14.14
2017-04-29T10:23:22.397Z,14.15
2017-04-29T10:24:07.805Z,14.12
2017-04-29T10:25:07.529Z,14.22
2017-04-29T10:26:22.470Z,14.64
2017-04-29T10:27:07.879Z,14.61
2017-04-29T10:28:07.902Z,14.92
2017-04-29T10:29:07.929Z,14.84
2017-04-29T10:30:07.949Z,14.75
2017-04-29T10:31:07.975Z,14.8
2017-04-29T10:32:07.697Z,14.61
2017-04-29T10:34:07.746Z,14.95
2017-04-29T10:35:07.768Z,14.91
2017-04-29T10:36:08.099Z,15.07
2017-04-29T10:37:07.817Z,15.29
2017-04-29T10:38:08.151Z,15.47
2017-04-29T10:39:22.788Z,14.88
2017-04-29T10:40:08.198Z,14.88
2017-04-29T10:41:08.227Z,14.69
2017-04-29T10:42:22.861Z,14.75
2017-04-29T10:43:08.267Z,14.98
2017-04-29T10:44:08.298Z,14.68
2017-04-29T10:45:08.015Z,14.68
2017-04-29T10:46:08.343Z,14.62
2017-04-29T10:47:08.367Z,14.88
2017-04-29T10:48:08.089Z,14.95
2017-04-29T10:49:08.422Z,15.06
2017-04-29T10:50:08.441Z,14.54
2017-04-29T10:51:08.467Z,15.09
2017-04-29T10:52:08.491Z,15.28
2017-04-29T10:53:08.516Z,15.28
2017-04-29T10:54:08.543Z,15.46
2017-04-29T10:55:23.181Z,14.77
2017-04-29T10:56:08.592Z,14.78
2017-04-29T10:57:23.232Z,14.96
2017-04-29T10:58:08.640Z,14.57
2017-04-29T10:59:08.666Z,14.06
2017-04-29T11:00:08.690Z,14.09
2017-04-29T11:01:08.712Z,14.04
2017-04-29T11:02:08.739Z,14.24
2017-04-29T11:03:08.760Z,14.09
2017-04-29T11:04:08.798Z,13.75
2017-04-29T11:05:08.813Z,13.87
2017-04-29T11:06:08.836Z,13.67
2017-04-29T11:08:08.883Z,13.44
2017-04-29T11:09:08.617Z,13.49
2017-04-29T11:10:08.932Z,13.64
2017-04-29T11:11:08.957Z,13.91
2017-04-29T11:12:08.981Z,13.7
2017-04-29T11:13:09.012Z,13.73
2017-04-29T11:14:09.032Z,14.07
2017-04-29T11:15:09.054Z,14.4
2017-04-29T11:16:09.079Z,14.6
2017-04-29T11:17:09.142Z,14.64
2017-04-29T11:18:09.134Z,14.65
2017-04-29T11:19:09.154Z,14.78
2017-04-29T11:20:09.177Z,14.58
2017-04-29T11:21:09.200Z,14.52
2017-04-29T11:22:09.223Z,14.62
2017-04-29T11:23:23.873Z,14.62
2017-04-29T11:24:09.278Z,14.52
2017-04-29T11:25:23.913Z,14.47
2017-04-29T11:26:09.320Z,14.4
2017-04-29T11:27:09.041Z,14.37
2017-04-29T11:28:09.071Z,14.43
2017-04-29T11:29:24.011Z,14.22
2017-04-29T11:30:09.417Z,14.2
2017-04-29T11:31:09.442Z,14.45
2017-04-29T11:32:09.470Z,14.06
2017-04-29T11:33:09.494Z,14.15
2017-04-29T11:36:09.569Z,14.28
2017-04-29T11:37:09.586Z,14.43
2017-04-29T11:38:09.614Z,14.21
2017-04-29T11:40:09.660Z,13.91
2017-04-29T11:41:09.682Z,13.75
2017-04-29T11:42:24.327Z,14.06
2017-04-29T11:43:09.740Z,14.2
2017-04-29T11:44:09.801Z,14.21
2017-04-29T11:45:24.397Z,13.89
2017-04-29T11:46:09.499Z,13.78
2017-04-29T11:47:09.828Z,13.67
2017-04-29T11:48:09.851Z,13.75
2017-04-29T11:49:09.574Z,13.87
2017-04-29T11:50:09.897Z,13.75
2017-04-29T11:51:09.956Z,13.88
2017-04-29T11:52:09.947Z,13.96
2017-04-29T11:53:10.009Z,14.17
2017-04-29T11:54:09.697Z,14.21
2017-04-29T11:56:09.739Z,14.18
2017-04-29T11:57:09.765Z,14.27
2017-04-29T11:58:09.792Z,14.24
2017-04-29T11:59:09.812Z,14.02
2017-04-29T12:00:10.146Z,14.18
2017-04-29T12:01:24.779Z,14.21
2017-04-29T12:02:09.581Z,14.37
2017-04-29T12:03:10.214Z,14.22
2017-04-29T12:04:10.238Z,14.07
2017-04-29T12:05:10.270Z,13.89
2017-04-29T12:06:10.280Z,14.04
2017-04-29T12:07:10.308Z,14.36
2017-04-29T12:08:10.026Z,14.32
2017-04-29T12:09:10.391Z,14.24
2017-04-29T12:10:10.376Z,13.99
2017-04-29T12:11:25.022Z,13.84
2017-04-29T12:12:10.427Z,13.92
2017-04-29T12:13:10.146Z,14.04
2017-04-29T12:14:25.091Z,14.06
2017-04-29T12:15:10.497Z,14.2
2017-04-29T12:16:10.219Z,14.06
2017-04-29T12:17:25.161Z,14.22
2017-04-29T12:18:10.265Z,14.2
2017-04-29T12:19:10.294Z,14.14
2017-04-29T12:21:10.639Z,14.46
2017-04-29T12:22:10.370Z,14.2
2017-04-29T12:23:10.688Z,14.18
2017-04-29T12:24:10.412Z,14.22
2017-04-29T12:25:10.741Z,13.85
2017-04-29T12:26:10.763Z,13.96
2017-04-29T12:27:25.403Z,13.71
2017-04-29T12:28:10.503Z,14
2017-04-29T12:29:10.837Z,14.07
2017-04-29T12:30:10.552Z,13.63
2017-04-29T12:31:10.576Z,13.49
2017-04-29T12:33:10.927Z,13.51
2017-04-29T12:34:10.651Z,13.36
2017-04-29T12:35:10.974Z,13.6
2017-04-29T12:36:11.000Z,13.81
2017-04-29T12:37:11.029Z,14.15
2017-04-29T12:38:11.045Z,14.22
2017-04-29T12:39:11.073Z,14.25
2017-04-29T12:40:10.791Z,14.29
2017-04-29T12:41:11.121Z,14.43
2017-04-29T12:42:11.144Z,14.18
2017-04-29T12:43:25.786Z,14.24
2017-04-29T12:44:11.195Z,14.35
2017-04-29T12:45:11.216Z,14.32
2017-04-29T12:46:11.243Z,14.27
2017-04-29T12:47:11.261Z,14.4
2017-04-29T12:48:10.982Z,14.64
2017-04-29T12:49:11.309Z,14.5
2017-04-29T12:50:10.728Z,14.5
2017-04-29T12:51:11.357Z,14.55
2017-04-29T12:52:11.383Z,14.43
2017-04-29T12:53:11.409Z,13.75
2017-04-29T12:54:11.448Z,13.69
2017-04-29T12:55:11.452Z,13.91
2017-04-29T12:56:11.478Z,13.87
2017-04-29T12:58:11.224Z,13.48
2017-04-29T12:59:26.169Z,13.32
2017-04-29T13:00:26.190Z,13.32
2017-04-29T13:01:11.597Z,13.19
2017-04-29T13:02:11.621Z,13.32
2017-04-29T13:03:11.646Z,13.55
2017-04-29T13:04:26.285Z,13.64
2017-04-29T13:05:11.697Z,13.59
2017-04-29T13:06:11.716Z,13.59
2017-04-29T13:07:11.739Z,13.6
2017-04-29T13:08:11.761Z,13.79
2017-04-29T13:09:11.789Z,13.78
2017-04-29T13:10:11.508Z,13.73
2017-04-29T13:11:11.836Z,13.91
2017-04-29T13:13:11.883Z,13.91
2017-04-29T13:14:11.905Z,13.91
2017-04-29T13:15:11.629Z,13.7
2017-04-29T13:16:11.951Z,13.66
2017-04-29T13:17:11.978Z,13.63
2017-04-29T13:18:12.009Z,13.55
2017-04-29T13:19:12.026Z,13.44
2017-04-29T13:20:26.666Z,13.46
2017-04-29T13:21:12.070Z,13.49
2017-04-29T13:22:12.096Z,13.62
2017-04-29T13:23:12.122Z,13.66
2017-04-29T13:24:11.838Z,13.63
2017-04-29T13:25:12.165Z,13.63
2017-04-29T13:26:12.193Z,13.57
2017-04-29T13:27:12.216Z,13.64
2017-04-29T13:28:12.242Z,13.63
2017-04-29T13:29:11.958Z,13.64
2017-04-29T13:30:11.679Z,13.71
2017-04-29T13:31:12.010Z,13.69
2017-04-29T13:32:12.027Z,13.81
2017-04-29T13:33:26.971Z,13.77
2017-04-29T13:34:12.384Z,13.78
2017-04-29T13:35:12.404Z,13.87
2017-04-29T13:36:27.041Z,13.64
2017-04-29T13:37:12.144Z,13.64
2017-04-29T13:38:12.474Z,13.63
2017-04-29T13:39:12.499Z,13.64
2017-04-29T13:40:12.214Z,13.67
2017-04-29T13:42:12.269Z,14.1
2017-04-29T13:43:12.591Z,14.09
2017-04-29T13:44:12.618Z,14.17
2017-04-29T13:45:12.337Z,14.07
2017-04-29T13:46:26.977Z,14.17
2017-04-29T13:47:12.382Z,14.12
2017-04-29T13:48:12.713Z,14.1
2017-04-29T13:49:12.432Z,13.89
2017-04-29T13:50:12.755Z,13.73
2017-04-29T13:51:12.812Z,13.63
2017-04-29T13:52:27.422Z,13.59
2017-04-29T13:53:12.833Z,13.3
2017-04-29T13:54:12.551Z,12.82
2017-04-29T13:55:12.573Z,12.56
2017-04-29T13:56:12.593Z,12.49
2017-04-29T13:57:12.927Z,12.12
2017-04-29T13:58:12.646Z,11.99
2017-04-29T13:59:12.973Z,12.29
2017-04-29T14:00:12.688Z,12.47
2017-04-29T14:02:12.431Z,12.68
2017-04-29T14:03:27.681Z,12.49
2017-04-29T14:04:13.099Z,12.45